createdAt,value
2023-03-26T00:02:51.189Z,99600.62
2023-03-26T00:06:12.820Z,99600.59
2023-03-26T00:09:16.952Z,99605.19
2023-03-26T00:12:19.068Z,99610.69
2023-03-26T00:15:21.052Z,99603.06
2023-03-26T00:18:25.099Z,99602.50
2023-03-26T00:21:29.457Z,99595.06
2023-03-26T00:24:31.635Z,99604.69
2023-03-26T00:27:34.370Z,99601.19
2023-03-26T00:30:36.577Z,99606.56
2023-03-26T00:33:40.901Z,99625.25
2023-03-26T00:36:44.049Z,99632.44
2023-03-26T00:39:49.190Z,99626.72
2023-03-26T00:42:51.276Z,99630.31
2023-03-26T00:45:55.442Z,99631.69
2023-03-26T00:48:59.096Z,99636.28
2023-03-26T00:52:03.141Z,99642.87
2023-03-26T00:55:05.520Z,99649.87
2023-03-26T00:58:12.910Z,99648.50
2023-03-26T01:01:19.166Z,99639.72
2023-03-26T01:04:31.931Z,99635.16
2023-03-26T01:07:35.330Z,99644.19
2023-03-26T01:10:40.167Z,99634.91
2023-03-26T01:13:49.612Z,99648.75
2023-03-26T01:16:55.142Z,99630.44
2023-03-26T01:20:20.132Z,99641.56
2023-03-26T01:23:24.782Z,99629.56
2023-03-26T01:26:38.918Z,99638.97
2023-03-26T01:29:44.266Z,99643.47
2023-03-26T01:32:58.202Z,99638.41
2023-03-26T01:36:32.542Z,99632.59
2023-03-26T01:39:53.452Z,99634.38
2023-03-26T01:43:04.983Z,99628.28
2023-03-26T01:46:09.915Z,99622.34
2023-03-26T01:49:13.633Z,99632.00
2023-03-26T01:52:20.101Z,99629.72
2023-03-26T01:55:28.398Z,99627.28
2023-03-26T01:58:44.674Z,99624.62
2023-03-26T02:02:14.425Z,99616.94
2023-03-26T02:05:31.789Z,99616.06
2023-03-26T02:08:39.817Z,99611.53
2023-03-26T02:11:43.567Z,99603.44
2023-03-26T02:14:46.176Z,99602.28
2023-03-26T02:17:49.741Z,99615.34
2023-03-26T02:20:55.881Z,99625.94
2023-03-26T02:24:03.030Z,99624.28
2023-03-26T02:27:07.976Z,99612.56
2023-03-26T02:30:15.120Z,99610.22
2023-03-26T02:33:17.442Z,99602.38
2023-03-26T02:36:22.170Z,99593.41
2023-03-26T02:39:25.469Z,99582.53
2023-03-26T02:42:27.955Z,99592.53
2023-03-26T02:45:30.035Z,99590.31
2023-03-26T02:48:34.777Z,99564.75
2023-03-26T02:51:37.581Z,99568.22
2023-03-26T02:54:39.620Z,99587.25
2023-03-26T02:57:41.601Z,99583.56
2023-03-26T03:00:46.949Z,99591.50
2023-03-26T03:03:49.160Z,99596.72
2023-03-26T03:06:53.172Z,99605.69
2023-03-26T03:09:55.394Z,99597.13
2023-03-26T03:12:57.548Z,99605.09
2023-03-26T03:15:59.613Z,99608.81
2023-03-26T03:19:01.981Z,99603.59
2023-03-26T03:22:04.172Z,99600.91
2023-03-26T03:25:09.218Z,99598.94
2023-03-26T03:28:13.961Z,99590.19
2023-03-26T03:31:17.626Z,99587.19
2023-03-26T03:34:19.834Z,99589.06
2023-03-26T03:37:22.030Z,99589.66
2023-03-26T03:40:24.512Z,99595.16
2023-03-26T03:43:27.654Z,99586.72
2023-03-26T03:46:29.941Z,99601.31
2023-03-26T03:49:32.169Z,99591.09
2023-03-26T03:52:34.198Z,99596.75
2023-03-26T03:55:38.394Z,99597.63
2023-03-26T03:58:41.182Z,99595.53
2023-03-26T04:01:46.853Z,99590.09
2023-03-26T04:04:50.406Z,99602.66
2023-03-26T04:07:52.570Z,99599.44
2023-03-26T04:10:54.643Z,99599.78
2023-03-26T04:13:56.796Z,99586.38
2023-03-26T04:16:58.905Z,99596.94
2023-03-26T04:20:14.606Z,99604.16
2023-03-26T04:23:18.647Z,99601.59
2023-03-26T04:26:20.838Z,99592.62
2023-03-26T04:29:25.841Z,99597.97
2023-03-26T04:32:30.576Z,99604.06
2023-03-26T04:35:37.124Z,99603.41
2023-03-26T04:38:45.716Z,99612.87
2023-03-26T04:41:48.713Z,99610.94
2023-03-26T04:44:51.039Z,99615.56
2023-03-26T04:47:53.157Z,99622.34
2023-03-26T04:50:56.603Z,99624.31
2023-03-26T04:54:00.277Z,99624.41
2023-03-26T04:57:08.604Z,99628.75
2023-03-26T05:00:16.588Z,99620.87
2023-03-26T05:03:21.188Z,99625.06
2023-03-26T05:06:23.444Z,99625.88
2023-03-26T05:09:29.323Z,99626.31
2023-03-26T05:12:31.409Z,99623.34
2023-03-26T05:15:33.456Z,99624.16
2023-03-26T05:18:35.514Z,99619.59
2023-03-26T05:21:37.999Z,99618.56
2023-03-26T05:24:40.050Z,99619.34
2023-03-26T05:27:42.143Z,99619.22
2023-03-26T05:30:44.776Z,99614.75
2023-03-26T05:33:48.693Z,99609.00
2023-03-26T05:36:50.919Z,99608.88
2023-03-26T05:39:55.024Z,99604.87
2023-03-26T05:42:57.193Z,99607.75
2023-03-26T05:45:59.409Z,99596.72
2023-03-26T05:49:01.524Z,99597.50
2023-03-26T05:52:04.019Z,99601.50
2023-03-26T05:55:06.736Z,99605.47
2023-03-26T05:58:08.820Z,99605.06
2023-03-26T06:01:17.012Z,99603.69
2023-03-26T06:04:19.608Z,99594.09
2023-03-26T06:07:21.844Z,99595.81
2023-03-26T06:10:24.874Z,99592.16
2023-03-26T06:13:27.254Z,99591.78
2023-03-26T06:16:29.444Z,99581.97
2023-03-26T06:19:31.758Z,99581.91
2023-03-26T06:22:33.751Z,99582.00
2023-03-26T06:25:37.588Z,99586.19
2023-03-26T06:28:39.745Z,99573.34
2023-03-26T06:31:42.263Z,99585.44
2023-03-26T06:34:44.372Z,99582.81
2023-03-26T06:37:46.644Z,99566.28
2023-03-26T06:40:50.497Z,99572.19
2023-03-26T06:43:53.023Z,99565.87
2023-03-26T06:46:55.081Z,99569.44
2023-03-26T06:49:57.094Z,99561.03
2023-03-26T06:52:59.275Z,99559.22
2023-03-26T06:56:02.913Z,99561.22
2023-03-26T06:59:05.157Z,99554.25
2023-03-26T07:02:07.714Z,99552.59
2023-03-26T07:05:10.025Z,99548.84
2023-03-26T07:08:12.115Z,99549.81
2023-03-26T07:11:14.458Z,99550.00
2023-03-26T07:14:16.554Z,99554.53
2023-03-26T07:17:18.870Z,99547.59
2023-03-26T07:20:21.656Z,99556.66
2023-03-26T07:23:24.135Z,99562.75
2023-03-26T07:26:41.420Z,99553.00
2023-03-26T07:29:59.475Z,99550.78
2023-03-26T07:33:10.084Z,99548.94
2023-03-26T07:36:28.833Z,99557.06
2023-03-26T07:39:52.485Z,99556.97
2023-03-26T07:43:29.107Z,99559.91
2023-03-26T07:46:35.061Z,99551.87
2023-03-26T07:49:38.364Z,99555.56
2023-03-26T07:52:41.004Z,99551.53
2023-03-26T07:55:58.365Z,99550.19
2023-03-26T07:59:18.488Z,99556.50
2023-03-26T08:02:45.518Z,99549.78
2023-03-26T08:06:02.018Z,99547.44
2023-03-26T08:09:32.745Z,99549.56
2023-03-26T08:12:58.222Z,99544.59
2023-03-26T08:16:35.754Z,99530.31
2023-03-26T08:19:49.387Z,99523.53
2023-03-26T08:23:00.627Z,99530.69
2023-03-26T08:26:31.705Z,99525.28
2023-03-26T08:29:36.776Z,99527.03
2023-03-26T08:32:39.160Z,99532.47
2023-03-26T08:35:42.722Z,99532.94
2023-03-26T08:38:46.834Z,99518.56
2023-03-26T08:42:17.022Z,99513.03
2023-03-26T08:45:37.444Z,99507.72
2023-03-26T08:49:33.407Z,99499.81
2023-03-26T08:53:09.580Z,99498.63
2023-03-26T08:56:35.177Z,99495.59
2023-03-26T08:59:46.318Z,99481.84
2023-03-26T09:03:20.449Z,99483.69
2023-03-26T09:06:41.238Z,99489.63
2023-03-26T09:09:52.500Z,99475.34
2023-03-26T09:13:26.628Z,99477.81
2023-03-26T09:16:34.769Z,99470.22
2023-03-26T09:20:00.040Z,99466.59
2023-03-26T09:23:07.902Z,99456.97
2023-03-26T09:26:15.945Z,99453.84
2023-03-26T09:29:23.855Z,99435.94
2023-03-26T09:32:46.737Z,99441.47
2023-03-26T09:36:18.668Z,99437.87
2023-03-26T09:39:30.107Z,99427.47
2023-03-26T09:42:45.876Z,99418.56
2023-03-26T09:45:59.823Z,99422.44
2023-03-26T09:49:35.981Z,99417.59
2023-03-26T09:53:27.467Z,99413.72
2023-03-26T09:56:51.478Z,99408.72
2023-03-26T10:00:22.972Z,99401.97
2023-03-26T10:03:38.480Z,99390.63
2023-03-26T10:06:52.470Z,99387.62
2023-03-26T10:10:02.672Z,99382.03
2023-03-26T10:13:26.337Z,99383.84
2023-03-26T10:16:50.178Z,99376.63
2023-03-26T10:20:22.456Z,99370.72
2023-03-26T10:23:57.150Z,99366.41
2023-03-26T10:27:22.545Z,99355.72
2023-03-26T10:30:38.316Z,99338.41
2023-03-26T10:33:49.940Z,99322.28
2023-03-26T10:37:03.966Z,99315.25
2023-03-26T10:40:18.208Z,99314.59
2023-03-26T10:44:08.024Z,99306.69
2023-03-26T10:47:29.255Z,99300.94
2023-03-26T10:51:31.065Z,99298.28
2023-03-26T10:54:55.269Z,99285.41
2023-03-26T10:58:10.801Z,99275.38
2023-03-26T11:01:36.199Z,99278.00
2023-03-26T11:05:00.469Z,99263.44
2023-03-26T11:08:10.001Z,99249.25
2023-03-26T11:11:18.016Z,99245.34
2023-03-26T11:14:41.447Z,99238.00
2023-03-26T11:18:01.805Z,99230.34
2023-03-26T11:21:32.392Z,99215.25
2023-03-26T11:24:52.604Z,99199.94
2023-03-26T11:28:11.251Z,99197.50
2023-03-26T11:31:27.352Z,99191.63
2023-03-26T11:34:43.109Z,99181.09
2023-03-26T11:37:50.741Z,99180.25
2023-03-26T11:40:57.823Z,99163.63
2023-03-26T11:44:22.065Z,99149.22
2023-03-26T11:47:31.260Z,99141.66
2023-03-26T11:50:38.857Z,99139.25
2023-03-26T11:53:46.938Z,99145.81
2023-03-26T11:57:04.862Z,99140.88
2023-03-26T12:00:21.587Z,99147.97
2023-03-26T12:03:23.962Z,99148.84
2023-03-26T12:06:27.604Z,99133.94
2023-03-26T12:09:29.900Z,99129.12
2023-03-26T12:12:41.829Z,99141.00
2023-03-26T12:15:44.349Z,99123.16
2023-03-26T12:18:58.799Z,99115.25
2023-03-26T12:22:01.231Z,99112.62
2023-03-26T12:25:20.864Z,99104.16
2023-03-26T12:28:24.033Z,99090.66
2023-03-26T12:31:26.709Z,99095.84
2023-03-26T12:34:35.172Z,99080.63
2023-03-26T12:37:43.319Z,99076.31
2023-03-26T12:40:45.663Z,99052.28
2023-03-26T12:44:54.132Z,99059.06
2023-03-26T12:47:58.041Z,99044.56
2023-03-26T12:51:04.033Z,99035.84
2023-03-26T12:54:29.061Z,99029.31
2023-03-26T12:57:41.340Z,99031.84
2023-03-26T13:00:49.983Z,99016.56
2023-03-26T13:04:14.371Z,99026.44
2023-03-26T13:07:31.555Z,99013.56
2023-03-26T13:10:44.818Z,98996.47
2023-03-26T13:13:56.906Z,98998.06
2023-03-26T13:17:13.442Z,98995.06
2023-03-26T13:20:45.782Z,99005.13
2023-03-26T13:24:16.463Z,98996.69
2023-03-26T13:27:37.799Z,98978.34
2023-03-26T13:31:26.655Z,98977.41
2023-03-26T13:34:53.075Z,98960.75
2023-03-26T13:38:04.778Z,98943.53
2023-03-26T13:41:16.256Z,98937.22
2023-03-26T13:44:48.869Z,98929.72
2023-03-26T13:47:55.491Z,98938.94
2023-03-26T13:51:09.936Z,98931.38
2023-03-26T13:54:26.359Z,98922.72
2023-03-26T13:58:11.947Z,98927.25
2023-03-26T14:01:18.140Z,98917.22
2023-03-26T14:04:26.387Z,98911.00
2023-03-26T14:07:42.425Z,98911.84
2023-03-26T14:10:54.136Z,98892.19
2023-03-26T14:14:04.344Z,98885.34
2023-03-26T14:17:21.420Z,98874.78
2023-03-26T14:20:38.128Z,98877.28
2023-03-26T14:23:58.631Z,98878.63
2023-03-26T14:27:24.565Z,98879.56
2023-03-26T14:30:50.047Z,98873.19
2023-03-26T14:34:10.850Z,98873.50
2023-03-26T14:37:35.704Z,98869.91
2023-03-26T14:44:49.269Z,98850.69
2023-03-26T14:48:34.108Z,98838.28
2023-03-26T14:51:59.556Z,98829.13
2023-03-26T14:59:30.039Z,98815.75
2023-03-26T15:03:09.900Z,98810.09
2023-03-26T15:06:14.411Z,98793.06
2023-03-26T15:09:38.698Z,98788.97
2023-03-26T15:13:14.281Z,98779.41
2023-03-26T15:17:04.202Z,98766.06
2023-03-26T15:20:32.135Z,98759.91
2023-03-26T15:23:53.176Z,98750.41
2023-03-26T15:27:02.201Z,98745.53
2023-03-26T15:30:33.269Z,98747.22
2023-03-26T15:33:58.700Z,98744.50
2023-03-26T15:37:48.762Z,98740.00
2023-03-26T15:41:29.217Z,98736.53
2023-03-26T15:44:53.992Z,98724.84
2023-03-26T15:48:12.223Z,98720.19
2023-03-26T15:51:20.421Z,98725.16
2023-03-26T15:54:30.480Z,98722.75
2023-03-26T15:57:41.764Z,98724.59
2023-03-26T16:05:03.546Z,98708.91
2023-03-26T16:08:27.369Z,98709.22
2023-03-26T16:15:20.592Z,98702.00
2023-03-26T16:18:30.642Z,98707.00
2023-03-26T16:22:15.218Z,98698.81
2023-03-26T16:25:27.845Z,98707.44
2023-03-26T16:28:34.676Z,98713.94
2023-03-26T16:31:39.377Z,98709.75
2023-03-26T16:34:58.261Z,98713.87
2023-03-26T16:38:25.014Z,98708.69
2023-03-26T16:41:29.653Z,98710.97
2023-03-26T16:45:04.363Z,98706.09
2023-03-26T16:48:44.736Z,98711.91
2023-03-26T16:51:50.068Z,98708.34
2023-03-26T16:55:05.537Z,98690.72
2023-03-26T16:58:17.785Z,98704.31
2023-03-26T17:01:56.323Z,98698.63
2023-03-26T17:05:18.433Z,98689.28
2023-03-26T17:08:38.392Z,98684.66
2023-03-26T17:11:59.004Z,98679.44
2023-03-26T17:19:20.340Z,98686.81
2023-03-26T17:22:42.634Z,98675.13
2023-03-26T17:26:04.454Z,98673.44
2023-03-26T17:29:30.837Z,98669.13
2023-03-26T17:33:04.492Z,98678.22
2023-03-26T17:36:13.247Z,98679.41
2023-03-26T17:39:39.924Z,98690.34
2023-03-26T17:43:03.641Z,98695.25
2023-03-26T17:46:41.936Z,98699.34
2023-03-26T17:49:47.067Z,98717.88
2023-03-26T17:53:06.786Z,98722.25
2023-03-26T17:56:20.079Z,98725.34
2023-03-26T17:59:27.484Z,98732.66
2023-03-26T18:02:42.874Z,98725.81
2023-03-26T18:05:48.526Z,98698.09
2023-03-26T18:09:17.557Z,98676.22
2023-03-26T18:13:02.672Z,98670.09
2023-03-26T18:16:28.153Z,98651.69
2023-03-26T18:19:48.043Z,98639.97
2023-03-26T18:23:09.235Z,98642.78
2023-03-26T18:26:20.481Z,98640.84
2023-03-26T18:29:29.333Z,98649.34
2023-03-26T18:32:34.234Z,98653.97
2023-03-26T18:35:47.856Z,98645.59
2023-03-26T18:47:31.750Z,98634.69
2023-03-26T18:56:42.697Z,98686.97
2023-03-26T19:26:49.428Z,98628.56
2023-03-26T19:29:53.971Z,98623.09
2023-03-26T19:33:12.562Z,98605.97
2023-03-26T19:36:23.918Z,98607.66
2023-03-26T19:39:43.342Z,98597.63
2023-03-26T19:42:46.641Z,98584.09
2023-03-26T19:46:00.416Z,98563.31
2023-03-26T19:49:32.896Z,98553.72
2023-03-26T19:52:39.098Z,98550.53
2023-03-26T19:55:43.021Z,98544.94
2023-03-26T19:58:46.477Z,98536.56
2023-03-26T20:02:47.017Z,98539.19
2023-03-26T20:05:50.346Z,98549.56
2023-03-26T20:08:54.477Z,98556.28
2023-03-26T20:12:00.488Z,98571.97
2023-03-26T20:15:19.585Z,98582.66
2023-03-26T20:18:23.059Z,98604.78
2023-03-26T20:21:26.955Z,98587.38
2023-03-26T20:29:24.332Z,98541.84
2023-03-26T20:36:06.933Z,98517.31
2023-03-26T20:39:10.278Z,98508.41
2023-03-26T20:42:16.003Z,98501.47
2023-03-26T20:45:21.989Z,98493.94
2023-03-26T20:48:40.061Z,98484.59
2023-03-26T20:51:55.752Z,98481.28
2023-03-26T20:55:01.136Z,98475.00
2023-03-26T20:58:04.206Z,98474.91
2023-03-26T21:01:07.079Z,98464.72
2023-03-26T21:04:09.498Z,98468.06
2023-03-26T21:07:18.081Z,98452.34
2023-03-26T21:10:26.504Z,98442.19
2023-03-26T21:13:40.892Z,98440.91
2023-03-26T21:16:43.507Z,98455.19
2023-03-26T21:19:46.866Z,98462.44
2023-03-26T21:22:49.275Z,98471.31
2023-03-26T21:26:01.465Z,98479.69
2023-03-26T21:29:03.912Z,98488.31
2023-03-26T21:32:07.003Z,98503.88
2023-03-26T21:35:10.165Z,98513.22
2023-03-26T21:42:29.573Z,98508.63
2023-03-26T21:45:32.262Z,98517.53
2023-03-26T21:48:34.983Z,98509.03
2023-03-26T21:51:43.114Z,98504.22
2023-03-26T21:58:20.768Z,98497.69
2023-03-26T22:01:38.311Z,98497.97
2023-03-26T22:08:42.876Z,98474.72
2023-03-26T22:11:45.064Z,98477.31
2023-03-26T22:14:47.586Z,98472.03
2023-03-26T22:17:54.187Z,98474.66
2023-03-26T22:20:59.293Z,98472.16
2023-03-26T22:24:04.005Z,98464.31
2023-03-26T22:27:57.601Z,98465.03
2023-03-26T22:31:00.008Z,98461.81
2023-03-26T22:34:02.510Z,98455.97
2023-03-26T22:37:05.741Z,98453.84
2023-03-26T22:40:08.961Z,98461.03
2023-03-26T22:43:11.545Z,98455.75
2023-03-26T22:46:14.438Z,98457.94
2023-03-26T22:49:17.081Z,98455.31
2023-03-26T22:52:22.189Z,98439.03
2023-03-26T22:59:40.177Z,98425.13
2023-03-26T23:02:46.706Z,98424.19
2023-03-26T23:05:59.167Z,98420.09
2023-03-26T23:09:09.199Z,98415.59
2023-03-26T23:23:33.416Z,98391.09
2023-03-26T23:26:49.660Z,98372.06
2023-03-26T23:29:53.615Z,98374.50
2023-03-26T23:32:57.494Z,98372.44
2023-03-26T23:36:00.838Z,98373.66
2023-03-26T23:39:33.892Z,98366.97
2023-03-26T23:42:37.727Z,98355.72
2023-03-26T23:52:37.798Z,98310.38
2023-03-26T23:55:51.502Z,98315.91
2023-03-26T23:59:00.731Z,98309.59
